Time;durP1;ratioP1;P1;durP2;ratioP2;P2;SDS_P1;SDS_P2;PMS_P1;PMS_P2;Temp;Humidity;BMP_temperature;BMP_pressure;BME280_temperature;BME280_humidity;BME280_pressure;Samples;Min_cycle;Max_cycle;Signal;HPM_P1;HPM_P2
2022/02/05 00:05:36;;;;;;;18.50;9.55;;;;;;;;;;5090476;28;20119;-68
2022/02/05 00:08:25;;;;;;;20.33;10.80;;;;;;;;;;5089774;28;20124;-68
2022/02/05 00:41:16;;;;;;;15.23;8.73;;;;;;;;;;5092756;28;20061;-68
2022/02/05 00:43:51;;;;;;;15.85;7.95;;;;;;;;;;5088763;28;20016;-68
2022/02/05 00:46:18;;;;;;;14.18;7.43;;;;;;;;;;5090385;28;20459;-68
2022/02/05 00:48:44;;;;;;;13.30;7.38;;;;;;;;;;5088712;28;20085;-68
2022/02/05 00:51:18;;;;;;;12.57;7.53;;;;;;;;;;5088856;28;20789;-68
2022/02/05 00:53:47;;;;;;;12.52;7.50;;;;;;;;;;5089569;28;20021;-69
2022/02/05 00:56:23;;;;;;;13.07;6.95;;;;;;;;;;5092072;28;20024;-68
2022/02/05 00:58:49;;;;;;;13.60;6.47;;;;;;;;;;5089626;28;20546;-68
2022/02/05 01:01:15;;;;;;;11.95;6.97;;;;;;;;;;5088749;28;20099;-68
2022/02/05 01:03:41;;;;;;;11.95;6.93;;;;;;;;;;5089462;28;20472;-68
2022/02/05 01:06:08;;;;;;;14.57;7.05;;;;;;;;;;5087951;28;20025;-68
2022/02/05 01:08:36;;;;;;;12.13;6.60;;;;;;;;;;5090922;28;20024;-68
2022/02/05 01:11:02;;;;;;;12.10;6.43;;;;;;;;;;5090289;28;20027;-67
2022/02/05 01:13:30;;;;;;;10.75;5.97;;;;;;;;;;5089533;28;20114;-68
2022/02/05 01:16:07;;;;;;;;;;;;;;;;;;5088763;28;20039;-69
2022/02/05 01:18:35;;;;;;;12.07;7.13;;;;;;;;;;5088053;28;20326;-68
2022/02/05 01:21:20;;;;;;;14.85;7.75;;;;;;;;;;5088351;28;20028;-68
2022/02/05 01:23:51;;;;;;;13.75;7.40;;;;;;;;;;5089163;28;20103;-68
2022/02/05 01:26:26;;;;;;;11.98;7.25;;;;;;;;;;5087599;28;20062;-69
2022/02/05 01:28:58;;;;;;;13.65;7.78;;;;;;;;;;5088413;28;20032;-69
2022/02/05 01:31:28;;;;;;;13.20;7.70;;;;;;;;;;5086759;28;20431;-68
2022/02/05 01:34:12;;;;;;;12.88;7.68;;;;;;;;;;5089586;28;20527;-68
2022/02/05 02:11:38;;;;;;;12.98;6.40;;;;;;;;;;5088118;28;20039;-68
2022/02/05 02:21:51;;;;;;;11.45;6.35;;;;;;;;;;5087531;28;20478;-68
2022/02/05 02:25:01;;;;;;;12.13;6.78;;;;;;;;;;5086783;28;20077;-69
2022/02/05 02:27:54;;;;;;;10.50;6.03;;;;;;;;;;5073680;28;20115;-68
2022/02/05 02:30:20;;;;;;;9.13;5.57;;;;;;;;;;5070906;28;20064;-68
2022/02/05 02:32:52;;;;;;;10.50;5.38;;;;;;;;;;5087897;28;20034;-69
2022/02/05 02:35:23;;;;;;;11.52;5.35;;;;;;;;;;5086465;28;20032;-68
2022/02/05 02:40:32;;;;;;;11.38;5.53;;;;;;;;;;5087181;28;20043;-68
2022/02/05 02:43:04;;;;;;;14.57;6.60;;;;;;;;;;5089329;28;20471;-69
2022/02/05 02:45:31;;;;;;;12.95;6.43;;;;;;;;;;5087074;28;20025;-68
2022/02/05 02:47:57;;;;;;;13.93;7.13;;;;;;;;;;5091504;28;20487;-68
2022/02/05 02:58:25;;;;;;;11.27;6.35;;;;;;;;;;5061829;28;20035;-68
2022/02/05 03:00:56;;;;;;;10.57;6.38;;;;;;;;;;5092249;28;20078;-69
2022/02/05 03:03:22;;;;;;;11.50;6.18;;;;;;;;;;5090925;28;20386;-69
2022/02/05 03:05:48;;;;;;;12.55;6.18;;;;;;;;;;5074786;28;20032;-69
2022/02/05 03:08:14;;;;;;;12.18;6.75;;;;;;;;;;5094192;28;20031;-69
2022/02/05 03:10:40;;;;;;;14.52;6.68;;;;;;;;;;5092169;28;20028;-70
2022/02/05 03:13:06;;;;;;;11.05;6.25;;;;;;;;;;5090272;28;20112;-69
2022/02/05 03:15:37;;;;;;;12.77;6.90;;;;;;;;;;5090655;28;20395;-69
2022/02/05 03:18:08;;;;;;;12.93;7.18;;;;;;;;;;5090602;28;20028;-69
2022/02/05 03:20:34;;;;;;;11.25;6.40;;;;;;;;;;5092931;28;20038;-68
2022/02/05 03:23:00;;;;;;;12.82;6.93;;;;;;;;;;5092004;28;20050;-68
2022/02/05 03:25:28;;;;;;;13.30;5.85;;;;;;;;;;5090759;28;20032;-68
2022/02/05 03:27:54;;;;;;;14.73;6.60;;;;;;;;;;5090120;28;20027;-70
2022/02/05 03:30:20;;;;;;;13.07;6.55;;;;;;;;;;5090750;28;20095;-69
2022/02/05 03:32:46;;;;;;;12.30;6.47;;;;;;;;;;5090945;28;20032;-69
2022/02/05 03:35:12;;;;;;;13.25;5.93;;;;;;;;;;5092920;28;20044;-69
2022/02/05 03:37:38;;;;;;;12.18;6.55;;;;;;;;;;5090452;28;20031;-68
2022/02/05 03:40:04;;;;;;;12.80;6.18;;;;;;;;;;5089869;28;20398;-69
2022/02/05 03:42:30;;;;;;;11.40;5.90;;;;;;;;;;5089814;28;20066;-69
2022/02/05 03:44:56;;;;;;;11.70;5.88;;;;;;;;;;5090397;28;20484;-69
2022/02/05 03:47:22;;;;;;;10.57;5.35;;;;;;;;;;5093203;28;20132;-69
2022/02/05 03:49:50;;;;;;;10.75;5.43;;;;;;;;;;5090709;28;20034;-70
2022/02/05 03:52:17;;;;;;;11.90;5.28;;;;;;;;;;5089865;28;20032;-69
2022/02/05 03:54:45;;;;;;;9.70;5.20;;;;;;;;;;5091200;28;20039;-68
2022/02/05 03:57:11;;;;;;;9.07;4.57;;;;;;;;;;5090122;28;20447;-69
2022/02/05 03:59:37;;;;;;;9.27;4.63;;;;;;;;;;5091739;28;20078;-69
2022/02/05 04:02:03;;;;;;;10.88;5.00;;;;;;;;;;5091527;28;20097;-69
2022/02/05 04:04:29;;;;;;;9.07;4.75;;;;;;;;;;5089614;28;20035;-69
2022/02/05 04:06:55;;;;;;;9.23;4.85;;;;;;;;;;5089872;28;20031;-69
2022/02/05 04:09:27;;;;;;;10.23;4.78;;;;;;;;;;5089616;28;20276;-68
2022/02/05 04:17:23;;;;;;;9.60;5.28;;;;;;;;;;5089753;28;20051;-69
2022/02/05 04:19:49;;;;;;;10.07;5.60;;;;;;;;;;5090180;28;20024;-69
2022/02/05 04:22:15;;;;;;;9.68;5.18;;;;;;;;;;5089082;28;20050;-69
2022/02/05 04:24:41;;;;;;;9.18;4.60;;;;;;;;;;5088799;28;20016;-69
2022/02/05 04:27:10;;;;;;;8.73;4.97;;;;;;;;;;5090563;28;20025;-69
2022/02/05 04:29:36;;;;;;;9.48;5.07;;;;;;;;;;5091604;28;20044;-69
2022/02/05 04:32:02;;;;;;;10.90;5.13;;;;;;;;;;5091022;28;20536;-69
2022/02/05 04:34:28;;;;;;;9.40;5.00;;;;;;;;;;5089334;28;20028;-69
2022/02/05 04:36:54;;;;;;;9.20;4.95;;;;;;;;;;5088647;28;20036;-69
2022/02/05 04:39:21;;;;;;;10.13;4.75;;;;;;;;;;5089166;28;20425;-69
2022/02/05 04:44:26;;;;;;;9.52;3.80;;;;;;;;;;5092365;28;20109;-69
2022/02/05 04:49:53;;;;;;;8.77;4.25;;;;;;;;;;5087035;28;20548;-69
2022/02/05 05:19:46;;;;;;;8.95;4.47;;;;;;;;;;5088504;28;20074;-69
2022/02/05 05:21:57;;;;;;;8.25;4.03;;;;;;;;;;5084319;28;20058;-69
2022/02/05 05:24:24;;;;;;;9.50;4.07;;;;;;;;;;5088094;28;20028;-69
2022/02/05 05:26:50;;;;;;;7.95;3.70;;;;;;;;;;5088315;28;20569;-69
2022/02/05 05:29:16;;;;;;;7.85;4.30;;;;;;;;;;5091512;28;20035;-69
2022/02/05 05:31:42;;;;;;;8.90;4.05;;;;;;;;;;5088257;28;20043;-69
2022/02/05 05:34:08;;;;;;;5.93;3.60;;;;;;;;;;5087612;28;20107;-70
2022/02/05 05:36:34;;;;;;;7.05;3.72;;;;;;;;;;5087981;28;20129;-71
2022/02/05 05:39:02;;;;;;;6.82;3.90;;;;;;;;;;5087759;28;20033;-69
2022/02/05 05:41:32;;;;;;;9.20;4.22;;;;;;;;;;5090443;28;20081;-70
2022/02/05 05:46:33;;;;;;;7.40;4.18;;;;;;;;;;5088950;28;20036;-69
2022/02/05 05:49:18;;;;;;;6.18;3.55;;;;;;;;;;5087881;28;20494;-69
2022/02/05 05:51:45;;;;;;;7.72;3.60;;;;;;;;;;5087630;28;20032;-69
2022/02/05 05:54:11;;;;;;;7.75;3.85;;;;;;;;;;5087087;28;20088;-69
2022/02/05 05:56:38;;;;;;;6.97;3.90;;;;;;;;;;5089908;28;20028;-69
2022/02/05 05:59:04;;;;;;;6.70;3.58;;;;;;;;;;5089432;28;20039;-69
2022/02/05 06:01:31;;;;;;;6.68;3.60;;;;;;;;;;5087485;28;20028;-70
2022/02/05 06:03:57;;;;;;;8.73;4.55;;;;;;;;;;5089360;28;20653;-77
2022/02/05 06:06:23;;;;;;;8.13;4.10;;;;;;;;;;5087057;28;20050;-77
2022/02/05 06:08:49;;;;;;;7.07;3.72;;;;;;;;;;5071732;28;20064;-77
2022/02/05 06:11:15;;;;;;;7.95;3.58;;;;;;;;;;5091214;28;20039;-76
2022/02/05 06:13:41;;;;;;;7.40;3.67;;;;;;;;;;5087552;28;20051;-76
2022/02/05 06:16:12;;;;;;;7.35;4.05;;;;;;;;;;5085976;28;20100;-69
2022/02/05 06:18:38;;;;;;;7.50;4.55;;;;;;;;;;5085656;28;20024;-69
2022/02/05 06:21:04;;;;;;;7.55;4.35;;;;;;;;;;5087936;28;20039;-69
2022/02/05 06:23:30;;;;;;;6.57;3.85;;;;;;;;;;5089482;28;20020;-68
2022/02/05 06:25:56;;;;;;;5.82;3.58;;;;;;;;;;5089346;28;20051;-69
2022/02/05 06:28:22;;;;;;;6.88;3.65;;;;;;;;;;5088578;28;20099;-70
2022/02/05 06:30:48;;;;;;;6.88;3.75;;;;;;;;;;5088768;28;20217;-70
2022/02/05 06:33:14;;;;;;;8.43;3.92;;;;;;;;;;5089267;28;20026;-68
2022/02/05 06:35:40;;;;;;;6.90;4.07;;;;;;;;;;5088232;28;20122;-69
2022/02/05 06:38:06;;;;;;;4.95;3.08;;;;;;;;;;5088467;28;20020;-68
2022/02/05 06:40:32;;;;;;;6.35;3.33;;;;;;;;;;5088506;28;20035;-68
2022/02/05 06:42:58;;;;;;;9.23;3.70;;;;;;;;;;5086752;28;20059;-75
2022/02/05 06:45:25;;;;;;;5.35;3.00;;;;;;;;;;5085290;28;20420;-74
2022/02/05 06:47:51;;;;;;;5.90;3.05;;;;;;;;;;5087338;28;20074;-79
2022/02/05 06:50:17;;;;;;;4.85;2.85;;;;;;;;;;5086991;28;20032;-73
2022/02/05 06:52:44;;;;;;;7.07;3.15;;;;;;;;;;5088199;28;20028;-78
2022/02/05 06:55:10;;;;;;;6.18;2.95;;;;;;;;;;5085695;28;20039;-75
2022/02/05 06:57:36;;;;;;;10.90;6.88;;;;;;;;;;5088112;28;20091;-68
2022/02/05 07:00:04;;;;;;;5.93;2.80;;;;;;;;;;5086382;28;20035;-70
2022/02/05 07:02:30;;;;;;;17.83;9.55;;;;;;;;;;5078108;28;20387;-68
2022/02/05 07:04:56;;;;;;;15.48;8.40;;;;;;;;;;5087064;28;20074;-69
2022/02/05 07:07:22;;;;;;;12.38;7.10;;;;;;;;;;5081845;28;20489;-71
2022/02/05 07:09:48;;;;;;;8.52;5.10;;;;;;;;;;5085000;28;20039;-69
2022/02/05 07:12:14;;;;;;;7.40;4.30;;;;;;;;;;5086850;28;20024;-75
2022/02/05 07:14:57;;;;;;;8.68;5.22;;;;;;;;;;5087189;28;20479;-74
2022/02/05 07:17:44;;;;;;;9.50;4.55;;;;;;;;;;5084968;28;20016;-74
2022/02/05 07:23:36;;;;;;;6.95;3.30;;;;;;;;;;5027208;28;20128;-74
2022/02/05 07:31:32;;;;;;;10.90;5.18;;;;;;;;;;5090782;28;20039;-76
2022/02/05 07:33:59;;;;;;;10.25;5.80;;;;;;;;;;5090153;28;20040;-75
2022/02/05 07:36:25;;;;;;;8.70;4.97;;;;;;;;;;5090315;28;20031;-78
2022/02/05 07:38:51;;;;;;;7.65;4.22;;;;;;;;;;5090312;28;20086;-77
2022/02/05 07:41:17;;;;;;;10.48;5.22;;;;;;;;;;5091983;28;20020;-78
2022/02/05 07:43:44;;;;;;;7.00;3.72;;;;;;;;;;5090309;28;20035;-78
2022/02/05 07:46:11;;;;;;;5.28;2.67;;;;;;;;;;5090297;28;20035;-78
2022/02/05 07:48:37;;;;;;;8.38;4.50;;;;;;;;;;5089990;28;20100;-80
2022/02/05 07:51:03;;;;;;;7.25;3.92;;;;;;;;;;5090255;28;20021;-77
2022/02/05 07:53:30;;;;;;;8.80;4.57;;;;;;;;;;5092322;28;20080;-77
2022/02/05 07:55:56;;;;;;;9.90;4.90;;;;;;;;;;5090949;28;20097;-69
2022/02/05 07:58:23;;;;;;;7.80;3.90;;;;;;;;;;5090007;28;20043;-69
2022/02/05 08:00:49;;;;;;;6.65;3.20;;;;;;;;;;5089782;28;20055;-74
2022/02/05 08:03:15;;;;;;;5.70;2.58;;;;;;;;;;5089291;28;20121;-68
2022/02/05 08:05:41;;;;;;;4.32;1.70;;;;;;;;;;5090910;28;20437;-68
2022/02/05 08:08:12;;;;;;;9.30;5.40;;;;;;;;;;5092013;28;20364;-68
2022/02/05 08:10:47;;;;;;;9.77;5.60;;;;;;;;;;5089578;28;20024;-69
2022/02/05 08:13:13;;;;;;;8.02;4.63;;;;;;;;;;5089497;28;20050;-69
2022/02/05 08:15:39;;;;;;;7.32;4.43;;;;;;;;;;5088496;28;20072;-70
2022/02/05 08:18:05;;;;;;;7.72;4.60;;;;;;;;;;5088539;28;20024;-69
2022/02/05 08:20:31;;;;;;;6.45;3.33;;;;;;;;;;5090526;28;20063;-68
2022/02/05 08:22:57;;;;;;;8.20;3.60;;;;;;;;;;5092482;28;20436;-68
2022/02/05 08:25:24;;;;;;;6.50;3.05;;;;;;;;;;5088852;28;20043;-68
2022/02/05 08:27:50;;;;;;;7.28;4.30;;;;;;;;;;5089325;28;20110;-68
2022/02/05 08:30:16;;;;;;;8.52;4.63;;;;;;;;;;5089046;28;20731;-68
2022/02/05 08:32:44;;;;;;;8.57;3.88;;;;;;;;;;5090719;28;20111;-68
2022/02/05 08:35:11;;;;;;;7.57;3.78;;;;;;;;;;5092084;28;20028;-69
2022/02/05 08:37:45;;;;;;;5.13;3.33;;;;;;;;;;5088576;28;20453;-68
2022/02/05 08:40:11;;;;;;;7.22;3.58;;;;;;;;;;5087618;28;20028;-68
2022/02/05 08:42:37;;;;;;;6.80;3.47;;;;;;;;;;5087035;28;20032;-68
2022/02/05 08:45:04;;;;;;;7.65;3.53;;;;;;;;;;5087219;28;20032;-68
2022/02/05 08:47:31;;;;;;;6.60;3.47;;;;;;;;;;5090696;28;20032;-68
2022/02/05 08:49:57;;;;;;;4.97;2.83;;;;;;;;;;5089223;28;20339;-68
2022/02/05 08:52:23;;;;;;;5.50;3.10;;;;;;;;;;5088124;28;20036;-68
2022/02/05 08:54:49;;;;;;;6.10;3.38;;;;;;;;;;5088012;28;20361;-67
2022/02/05 08:57:15;;;;;;;7.68;4.50;;;;;;;;;;5088835;28;20023;-67
2022/02/05 08:59:56;;;;;;;7.75;4.88;;;;;;;;;;5089916;28;20069;-67
2022/02/05 09:04:59;;;;;;;8.07;4.65;;;;;;;;;;5088871;28;20085;-68
2022/02/05 09:07:25;;;;;;;6.97;4.00;;;;;;;;;;5088452;28;20365;-67
2022/02/05 09:14:56;;;;;;;5.35;2.88;;;;;;;;;;5073112;28;20041;-67
2022/02/05 09:17:22;;;;;;;5.47;2.83;;;;;;;;;;5091387;28;20024;-67
2022/02/05 09:19:49;;;;;;;4.65;2.70;;;;;;;;;;5088472;28;20016;-67
2022/02/05 09:22:15;;;;;;;5.13;2.87;;;;;;;;;;5087868;28;20055;-67
2022/02/05 09:24:41;;;;;;;5.68;3.00;;;;;;;;;;5087608;28;20422;-67
2022/02/05 09:27:11;;;;;;;6.43;2.58;;;;;;;;;;5088185;28;20021;-67
2022/02/05 09:29:45;;;;;;;6.82;3.50;;;;;;;;;;5089859;28;20384;-67
2022/02/05 09:32:11;;;;;;;7.63;3.42;;;;;;;;;;5090989;28;20125;-67
2022/02/05 09:34:37;;;;;;;7.15;3.58;;;;;;;;;;5087239;28;20041;-67
2022/02/05 09:37:03;;;;;;;4.30;2.45;;;;;;;;;;5087749;28;20043;-67
2022/02/05 09:39:29;;;;;;;4.72;2.50;;;;;;;;;;5087978;28;20028;-68
2022/02/05 09:41:55;;;;;;;5.07;2.85;;;;;;;;;;5087610;28;20027;-68
2022/02/05 09:44:27;;;;;;;5.40;3.08;;;;;;;;;;5090742;28;20020;-67
2022/02/05 09:46:53;;;;;;;5.00;2.90;;;;;;;;;;5090454;28;20114;-67
2022/02/05 09:49:19;;;;;;;5.57;2.63;;;;;;;;;;5087413;28;20086;-67
2022/02/05 09:51:55;;;;;;;5.70;2.80;;;;;;;;;;5086651;28;20178;-67
2022/02/05 09:54:21;;;;;;;6.35;2.85;;;;;;;;;;5089167;28;20020;-67
2022/02/05 09:56:47;;;;;;;6.47;3.25;;;;;;;;;;5088107;28;20356;-67
2022/02/05 09:59:13;;;;;;;5.07;2.75;;;;;;;;;;5090416;28;20055;-67
2022/02/05 10:01:39;;;;;;;4.43;2.50;;;;;;;;;;5086945;28;20107;-67
2022/02/05 10:04:10;;;;;;;4.57;2.03;;;;;;;;;;5088963;28;20035;-67
2022/02/05 10:06:41;;;;;;;4.50;2.10;;;;;;;;;;5087781;28;20024;-67
2022/02/05 10:09:13;;;;;;;3.28;1.90;;;;;;;;;;5086912;28;20452;-67
2022/02/05 10:11:49;;;;;;;3.10;1.50;;;;;;;;;;5088478;28;20361;-67
2022/02/05 10:14:16;;;;;;;2.58;1.42;;;;;;;;;;5091009;28;20134;-67
2022/02/05 10:16:42;;;;;;;1.92;1.20;;;;;;;;;;5087118;28;20036;-66
2022/02/05 10:19:08;;;;;;;2.70;1.17;;;;;;;;;;5086795;28;20050;-67
2022/02/05 10:21:34;;;;;;;1.48;0.98;;;;;;;;;;5087415;28;20024;-67
2022/02/05 10:24:02;;;;;;;1.42;0.93;;;;;;;;;;5086954;28;20561;-67
2022/02/05 10:26:32;;;;;;;2.13;1.02;;;;;;;;;;5089528;28;20036;-67
2022/02/05 10:28:59;;;;;;;1.77;0.98;;;;;;;;;;5088030;28;20433;-66
2022/02/05 10:31:25;;;;;;;3.40;1.20;;;;;;;;;;5087197;28;20078;-67
2022/02/05 10:34:05;;;;;;;1.40;0.80;;;;;;;;;;5087154;28;20074;-66
2022/02/05 10:36:32;;;;;;;4.45;1.10;;;;;;;;;;5087194;28;20032;-67
2022/02/05 10:39:27;;;;;;;1.50;0.90;;;;;;;;;;5086922;28;20033;-67
2022/02/05 10:44:38;;;;;;;1.75;1.10;;;;;;;;;;5088839;28;20671;-67
2022/02/05 10:47:04;;;;;;;1.90;0.70;;;;;;;;;;5088539;28;20431;-67
2022/02/05 10:49:49;;;;;;;2.05;0.98;;;;;;;;;;5087031;28;20070;-67
2022/02/05 10:52:25;;;;;;;2.05;0.90;;;;;;;;;;5086745;28;20047;-67
2022/02/05 10:55:02;;;;;;;1.25;0.73;;;;;;;;;;5086681;28;20036;-67
2022/02/05 10:57:59;;;;;;;2.10;0.80;;;;;;;;;;5086425;28;20026;-67
2022/02/05 11:05:50;;;;;;;1.55;0.80;;;;;;;;;;5090156;28;20043;-67
2022/02/05 11:08:18;;;;;;;1.65;0.80;;;;;;;;;;5094176;28;20065;-67
2022/02/05 11:21:20;;;;;;;1.77;1.00;;;;;;;;;;5090352;28;20479;-67
2022/02/05 11:23:52;;;;;;;1.52;0.90;;;;;;;;;;5091287;28;20023;-68
2022/02/05 11:26:20;;;;;;;2.35;1.27;;;;;;;;;;5089507;28;20027;-68
2022/02/05 11:28:50;;;;;;;1.70;1.10;;;;;;;;;;5091770;28;20147;-68
2022/02/05 11:31:32;;;;;;;2.20;1.00;;;;;;;;;;5090199;28;20081;-68
2022/02/05 11:34:23;;;;;;;3.80;1.05;;;;;;;;;;5090134;28;20119;-68
2022/02/05 11:37:05;;;;;;;2.63;1.20;;;;;;;;;;5091323;28;20105;-68
2022/02/05 11:39:51;;;;;;;1.33;0.82;;;;;;;;;;5090184;28;20051;-68
2022/02/05 11:42:35;;;;;;;1.65;0.88;;;;;;;;;;5089461;28;20086;-68
2022/02/05 11:45:21;;;;;;;2.53;1.00;;;;;;;;;;5076069;28;20021;-68
2022/02/05 11:47:47;;;;;;;1.17;0.80;;;;;;;;;;5090651;28;20079;-69
2022/02/05 11:50:17;;;;;;;1.42;0.80;;;;;;;;;;5092878;28;20140;-68
2022/02/05 11:52:43;;;;;;;2.03;0.70;;;;;;;;;;5089089;28;20255;-68
2022/02/05 11:55:27;;;;;;;1.92;0.40;;;;;;;;;;5089380;28;20141;-66
2022/02/05 11:58:07;;;;;;;0.98;0.40;;;;;;;;;;5089545;28;20024;-68
2022/02/05 12:00:33;;;;;;;0.40;0.40;;;;;;;;;;5089206;28;20024;-68
2022/02/05 12:03:02;;;;;;;0.30;0.20;;;;;;;;;;5089985;28;20028;-68
2022/02/05 12:05:36;;;;;;;1.55;0.20;;;;;;;;;;5091871;28;20559;-67
2022/02/05 12:08:05;;;;;;;0.10;0.10;;;;;;;;;;5090977;28;20024;-68
2022/02/05 12:10:38;;;;;;;0.50;0.50;;;;;;;;;;5089189;28;20028;-68
2022/02/05 12:13:17;;;;;;;0.85;0.30;;;;;;;;;;5089178;28;20051;-68
2022/02/05 12:15:43;;;;;;;1.25;0.50;;;;;;;;;;5088583;28;20036;-68
2022/02/05 12:23:42;;;;;;;0.20;0.20;;;;;;;;;;5088592;28;20031;-67
2022/02/05 12:26:08;;;;;;;0.55;0.20;;;;;;;;;;5091542;28;20252;-67
2022/02/05 12:28:36;;;;;;;1.00;0.30;;;;;;;;;;5089261;28;20352;-68
2022/02/05 12:31:03;;;;;;;0.20;0.20;;;;;;;;;;5089268;28;20395;-67
2022/02/05 12:33:48;;;;;;;0.30;0.10;;;;;;;;;;5088885;28;20024;-67
2022/02/05 12:36:14;;;;;;;0.65;0.20;;;;;;;;;;5088978;28;20032;-67
2022/02/05 12:38:44;;;;;;;0.05;0.05;;;;;;;;;;5089948;28;20103;-67
2022/02/05 12:41:13;;;;;;;0.45;0.20;;;;;;;;;;5091817;28;20059;-68
2022/02/05 12:43:53;;;;;;;0.32;0.10;;;;;;;;;;5089030;28;20026;-67
2022/02/05 12:46:20;;;;;;;0.20;0.20;;;;;;;;;;5088669;28;20058;-68
2022/02/05 12:48:51;;;;;;;0.20;0.10;;;;;;;;;;5088598;28;20024;-68
2022/02/05 12:51:17;;;;;;;0.17;0.15;;;;;;;;;;5089281;28;20024;-68
2022/02/05 12:53:44;;;;;;;0.73;0.20;;;;;;;;;;5089439;28;20047;-68
2022/02/05 12:56:21;;;;;;;0.00;0.00;;;;;;;;;;5091054;28;20448;-67
2022/02/05 12:59:03;;;;;;;1.07;0.10;;;;;;;;;;5090351;28;20395;-68
2022/02/05 13:01:32;;;;;;;0.10;0.10;;;;;;;;;;5088781;28;20067;-68
2022/02/05 13:04:14;;;;;;;0.40;0.10;;;;;;;;;;5087832;28;20064;-67
2022/02/05 13:06:40;;;;;;;0.70;0.20;;;;;;;;;;5088249;28;20021;-68
2022/02/05 13:09:22;;;;;;;0.28;0.10;;;;;;;;;;5088515;28;20028;-67
2022/02/05 13:11:58;;;;;;;0.35;0.20;;;;;;;;;;5088698;28;20027;-68
2022/02/05 13:14:33;;;;;;;0.10;0.10;;;;;;;;;;5087566;28;20471;-67
2022/02/05 13:16:59;;;;;;;0.10;0.10;;;;;;;;;;5091597;28;20066;-68
2022/02/05 13:19:29;;;;;;;0.22;0.20;;;;;;;;;;5088249;28;20063;-69
2022/02/05 13:25:37;;;;;;;0.10;0.10;;;;;;;;;;5088125;28;20042;-68
2022/02/05 13:36:23;;;;;;;1.13;0.20;;;;;;;;;;5071966;28;20173;-67
2022/02/05 13:41:41;;;;;;;0.10;0.10;;;;;;;;;;5088001;28;20433;-67
2022/02/05 13:44:13;;;;;;;0.10;0.10;;;;;;;;;;5089742;28;20081;-68
2022/02/05 13:46:39;;;;;;;0.30;0.17;;;;;;;;;;5087442;28;20016;-68
2022/02/05 13:49:13;;;;;;;0.30;0.15;;;;;;;;;;5087551;28;20112;-68
2022/02/05 13:51:39;;;;;;;0.28;0.20;;;;;;;;;;5087330;28;20020;-67
2022/02/05 13:54:05;;;;;;;0.32;0.10;;;;;;;;;;5087478;28;20032;-67
2022/02/05 13:56:34;;;;;;;0.30;0.30;;;;;;;;;;5089710;28;20032;-68
2022/02/05 13:59:01;;;;;;;0.32;0.20;;;;;;;;;;5088747;28;20031;-67
2022/02/05 14:01:28;;;;;;;0.28;0.10;;;;;;;;;;5087253;28;20044;-67
2022/02/05 14:03:54;;;;;;;0.40;0.20;;;;;;;;;;5087324;28;20110;-68
2022/02/05 14:06:20;;;;;;;0.32;0.20;;;;;;;;;;5087638;28;20103;-67
2022/02/05 14:08:50;;;;;;;0.45;0.30;;;;;;;;;;5088101;28;20107;-67
2022/02/05 14:11:17;;;;;;;0.28;0.28;;;;;;;;;;5090901;28;20028;-68
2022/02/05 14:13:43;;;;;;;0.15;0.10;;;;;;;;;;5086928;28;20519;-68
2022/02/05 14:16:10;;;;;;;0.10;0.10;;;;;;;;;;5087509;28;20088;-68
2022/02/05 14:18:47;;;;;;;0.20;0.20;;;;;;;;;;5087107;28;20062;-68
2022/02/05 14:21:13;;;;;;;0.20;0.20;;;;;;;;;;5086997;28;20062;-68
2022/02/05 14:23:49;;;;;;;0.93;0.65;;;;;;;;;;5088582;28;20020;-69
2022/02/05 14:26:19;;;;;;;1.10;0.60;;;;;;;;;;5085968;28;20468;-68
2022/02/05 14:28:46;;;;;;;1.20;0.90;;;;;;;;;;5087010;28;20020;-68
2022/02/05 14:31:29;;;;;;;1.02;0.70;;;;;;;;;;5087103;28;20111;-67
2022/02/05 14:36:39;;;;;;;0.80;0.45;;;;;;;;;;5086209;28;20055;-67
2022/02/05 14:41:58;;;;;;;1.15;0.70;;;;;;;;;;5063319;28;20028;-67
2022/02/05 14:44:24;;;;;;;3.53;1.33;;;;;;;;;;5089617;28;20099;-67
2022/02/05 14:46:51;;;;;;;6.25;3.70;;;;;;;;;;5082355;28;20437;-68
2022/02/05 14:49:17;;;;;;;6.60;3.90;;;;;;;;;;5082624;28;20024;-67
2022/02/05 14:51:43;;;;;;;3.80;2.75;;;;;;;;;;5088249;28;20058;-68
2022/02/05 14:54:09;;;;;;;3.40;2.45;;;;;;;;;;5086975;28;20027;-68
2022/02/05 14:56:35;;;;;;;4.93;3.70;;;;;;;;;;5088878;28;20041;-67
2022/02/05 14:59:01;;;;;;;2.45;1.98;;;;;;;;;;5087715;28;20039;-67
2022/02/05 15:01:28;;;;;;;2.75;1.67;;;;;;;;;;5086930;28;20027;-67
2022/02/05 15:03:55;;;;;;;2.63;1.27;;;;;;;;;;5087918;28;20020;-67
2022/02/05 15:06:25;;;;;;;2.72;1.70;;;;;;;;;;5086916;28;20020;-67
2022/02/05 15:08:51;;;;;;;2.13;1.13;;;;;;;;;;5070399;28;20034;-67
2022/02/05 15:11:18;;;;;;;1.98;1.20;;;;;;;;;;5085820;28;20020;-67
2022/02/05 15:13:44;;;;;;;2.10;1.10;;;;;;;;;;5086302;28;20040;-67
2022/02/05 15:16:12;;;;;;;1.10;0.90;;;;;;;;;;5086397;28;20042;-67
2022/02/05 15:18:47;;;;;;;1.65;0.95;;;;;;;;;;5085975;28;20518;-68
2022/02/05 15:21:13;;;;;;;2.20;1.00;;;;;;;;;;5086900;28;20043;-68
2022/02/05 15:23:39;;;;;;;1.98;0.93;;;;;;;;;;5088662;28;20024;-68
2022/02/05 15:26:06;;;;;;;2.53;1.52;;;;;;;;;;5088148;28;20024;-68
2022/02/05 15:28:32;;;;;;;4.03;1.00;;;;;;;;;;5086404;28;20048;-67
2022/02/05 15:31:00;;;;;;;2.13;1.20;;;;;;;;;;5087237;28;20276;-68
2022/02/05 15:33:26;;;;;;;1.90;1.38;;;;;;;;;;5086565;28;20018;-67
2022/02/05 15:35:55;;;;;;;2.95;1.50;;;;;;;;;;5086609;28;20067;-68
2022/02/05 15:38:31;;;;;;;3.80;1.85;;;;;;;;;;5086029;28;20028;-67
2022/02/05 15:43:53;;;;;;;2.47;1.40;;;;;;;;;;5086130;28;20036;-67
2022/02/05 15:46:19;;;;;;;4.60;1.98;;;;;;;;;;5086034;28;20055;-67
2022/02/05 15:48:46;;;;;;;3.58;1.70;;;;;;;;;;5086279;28;20020;-67
2022/02/05 15:51:12;;;;;;;4.32;2.10;;;;;;;;;;5088550;28;20032;-67
2022/02/05 15:53:45;;;;;;;6.43;1.63;;;;;;;;;;5091651;28;20373;-67
2022/02/05 15:56:23;;;;;;;5.88;2.08;;;;;;;;;;5092694;28;20040;-68
2022/02/05 15:58:51;;;;;;;4.53;2.30;;;;;;;;;;5091444;28;20411;-67
2022/02/05 16:01:17;;;;;;;3.65;1.90;;;;;;;;;;5089461;28;20081;-67
2022/02/05 16:03:44;;;;;;;2.30;1.60;;;;;;;;;;5089461;28;20028;-67
2022/02/05 16:06:10;;;;;;;7.50;3.50;;;;;;;;;;5089438;28;20111;-68
2022/02/05 16:08:36;;;;;;;3.88;2.10;;;;;;;;;;5091570;28;20043;-67
2022/02/05 16:11:02;;;;;;;5.80;2.28;;;;;;;;;;5091279;28;20126;-67
2022/02/05 16:13:28;;;;;;;5.20;2.83;;;;;;;;;;5089449;28;20048;-67
2022/02/05 16:15:55;;;;;;;4.95;2.20;;;;;;;;;;5088934;28;20043;-67
2022/02/05 16:18:21;;;;;;;5.45;2.22;;;;;;;;;;5089517;28;20020;-68
2022/02/05 16:20:47;;;;;;;4.00;1.80;;;;;;;;;;5089725;28;20421;-67
2022/02/05 16:23:13;;;;;;;4.15;1.50;;;;;;;;;;5092167;28;20646;-67
2022/02/05 16:25:39;;;;;;;3.67;2.10;;;;;;;;;;5089308;28;20075;-67
2022/02/05 16:28:05;;;;;;;7.85;2.65;;;;;;;;;;5089278;28;20471;-69
2022/02/05 16:30:36;;;;;;;4.57;2.50;;;;;;;;;;5088910;28;20107;-68
2022/02/05 16:33:04;;;;;;;5.13;2.75;;;;;;;;;;5089056;28;20170;-67
2022/02/05 16:35:32;;;;;;;3.92;2.10;;;;;;;;;;5091021;28;20042;-67
2022/02/05 16:38:02;;;;;;;3.65;1.92;;;;;;;;;;5090334;28;20510;-67
2022/02/05 16:40:30;;;;;;;3.28;1.90;;;;;;;;;;5089045;28;20028;-67
2022/02/05 16:42:56;;;;;;;4.82;2.35;;;;;;;;;;5088736;28;20013;-67
2022/02/05 16:45:23;;;;;;;3.88;2.30;;;;;;;;;;5088212;28;20371;-67
2022/02/05 16:47:50;;;;;;;4.68;2.20;;;;;;;;;;5073139;28;20429;-67
2022/02/05 16:50:18;;;;;;;4.53;2.40;;;;;;;;;;5092219;28;20028;-67
2022/02/05 16:52:49;;;;;;;8.50;2.97;;;;;;;;;;5088263;28;20016;-67
2022/02/05 16:55:15;;;;;;;3.78;2.10;;;;;;;;;;5088140;28;20068;-67
2022/02/05 16:57:41;;;;;;;3.80;2.35;;;;;;;;;;5087947;28;20489;-67
2022/02/05 17:00:08;;;;;;;4.25;2.00;;;;;;;;;;5088886;28;20028;-68
2022/02/05 17:02:34;;;;;;;3.05;1.80;;;;;;;;;;5090338;28;20056;-67
2022/02/05 17:05:00;;;;;;;2.70;1.67;;;;;;;;;;5089200;28;20016;-67
2022/02/05 17:07:28;;;;;;;3.40;1.83;;;;;;;;;;5088154;28;20445;-67
2022/02/05 17:09:55;;;;;;;4.95;2.50;;;;;;;;;;5088168;28;20016;-67
2022/02/05 17:12:21;;;;;;;4.35;2.08;;;;;;;;;;5087693;28;20093;-67
2022/02/05 17:14:52;;;;;;;5.10;2.58;;;;;;;;;;5087991;28;20114;-69
2022/02/05 17:17:19;;;;;;;5.93;3.03;;;;;;;;;;5090618;28;20065;-70
2022/02/05 17:19:50;;;;;;;5.88;3.20;;;;;;;;;;5086637;28;20482;-70
2022/02/05 17:22:16;;;;;;;5.10;2.67;;;;;;;;;;5083329;28;20036;-71
2022/02/05 17:24:42;;;;;;;5.05;2.33;;;;;;;;;;5087208;28;20198;-70
2022/02/05 17:27:08;;;;;;;4.15;2.50;;;;;;;;;;5078269;28;20059;-70
2022/02/05 17:29:37;;;;;;;7.30;4.22;;;;;;;;;;5081479;28;20064;-70
2022/02/05 17:32:05;;;;;;;9.55;5.03;;;;;;;;;;5085726;28;20024;-70
2022/02/05 17:34:33;;;;;;;8.10;5.07;;;;;;;;;;5085116;28;20035;-70
2022/02/05 17:37:01;;;;;;;10.10;4.55;;;;;;;;;;5085509;28;20110;-72
2022/02/05 17:39:27;;;;;;;8.57;3.88;;;;;;;;;;5082157;28;20055;-72
2022/02/05 17:41:53;;;;;;;13.15;7.15;;;;;;;;;;5082358;28;20035;-72
2022/02/05 17:44:19;;;;;;;18.42;11.98;;;;;;;;;;5084000;28;20455;-69
2022/02/05 17:46:47;;;;;;;15.52;8.82;;;;;;;;;;5083391;28;20061;-69
2022/02/05 17:49:14;;;;;;;8.50;5.95;;;;;;;;;;5083228;28;20042;-69
2022/02/05 17:51:40;;;;;;;12.02;7.50;;;;;;;;;;5084861;28;20074;-69
2022/02/05 17:54:06;;;;;;;12.13;7.05;;;;;;;;;;5081537;28;20051;-69
2022/02/05 17:56:41;;;;;;;9.90;6.70;;;;;;;;;;5083818;28;20063;-68
2022/02/05 17:59:07;;;;;;;13.30;5.80;;;;;;;;;;5085988;28;20510;-68
2022/02/05 18:01:33;;;;;;;12.77;6.75;;;;;;;;;;5085754;28;20107;-67
2022/02/05 18:03:59;;;;;;;10.30;6.25;;;;;;;;;;5088180;28;20054;-67